createdAt,value
2022-08-26T00:01:56.349Z,12.95
2022-08-26T00:04:25.172Z,12.70
2022-08-26T00:06:54.032Z,13.32
2022-08-26T00:09:21.836Z,12.38
2022-08-26T00:11:51.023Z,12.52
2022-08-26T00:14:18.086Z,12.27
2022-08-26T00:16:49.021Z,12.65
2022-08-26T00:19:20.962Z,12.80
2022-08-26T00:21:49.641Z,12.95
2022-08-26T00:24:19.229Z,11.90
2022-08-26T00:26:46.914Z,12.98
2022-08-26T00:29:14.858Z,12.50
2022-08-26T00:34:13.986Z,12.25
2022-08-26T00:36:42.981Z,11.88
2022-08-26T00:39:10.495Z,13.15
2022-08-26T00:41:41.531Z,12.77
2022-08-26T00:44:11.106Z,12.48
2022-08-26T00:46:46.519Z,12.75
2022-08-26T00:49:17.816Z,12.85
2022-08-26T00:51:49.326Z,13.35
2022-08-26T00:54:17.351Z,14.10
2022-08-26T00:57:00.933Z,13.00
2022-08-26T00:59:32.772Z,13.35
2022-08-26T01:02:02.553Z,13.48
2022-08-26T01:04:31.672Z,13.32
2022-08-26T01:07:02.372Z,13.30
2022-08-26T01:09:30.189Z,13.18
2022-08-26T01:12:00.628Z,12.57
2022-08-26T01:14:33.817Z,14.10
2022-08-26T01:17:06.207Z,16.73
2022-08-26T01:19:43.674Z,14.90
2022-08-26T01:22:20.256Z,14.65
2022-08-26T01:24:48.263Z,14.93
2022-08-26T01:27:19.535Z,14.95
2022-08-26T01:29:48.917Z,13.80
2022-08-26T01:32:19.396Z,13.50
2022-08-26T01:34:47.867Z,13.70
2022-08-26T01:37:19.558Z,13.32
2022-08-26T01:39:50.667Z,12.90
2022-08-26T01:42:20.913Z,13.30
2022-08-26T01:45:13.509Z,14.65
2022-08-26T01:47:44.322Z,14.85
2022-08-26T01:50:27.531Z,15.07
2022-08-26T01:52:57.649Z,14.23
2022-08-26T01:55:32.950Z,14.10
2022-08-26T01:58:04.755Z,13.75
2022-08-26T02:00:34.654Z,14.13
2022-08-26T02:03:17.556Z,14.23
2022-08-26T02:05:51.479Z,14.15
2022-08-26T02:08:24.868Z,14.68
2022-08-26T02:10:54.746Z,15.40
2022-08-26T02:13:25.285Z,15.90
2022-08-26T02:15:53.369Z,16.48
2022-08-26T02:18:20.757Z,14.85
2022-08-26T02:20:52.635Z,15.80
2022-08-26T02:23:19.497Z,16.33
2022-08-26T02:25:59.665Z,15.27
2022-08-26T02:28:32.438Z,14.90
2022-08-26T02:30:59.464Z,14.02
2022-08-26T02:33:29.839Z,15.25
2022-08-26T02:35:57.297Z,15.65
2022-08-26T02:38:24.343Z,15.85
2022-08-26T02:40:53.786Z,14.43
2022-08-26T02:43:31.164Z,14.60
2022-08-26T02:46:00.808Z,14.43
2022-08-26T02:48:28.926Z,15.45
2022-08-26T02:50:55.828Z,16.70
2022-08-26T02:53:25.349Z,15.93
2022-08-26T02:55:52.830Z,15.55
2022-08-26T02:58:21.786Z,14.77
2022-08-26T03:00:52.554Z,14.20
2022-08-26T03:03:20.684Z,15.88
2022-08-26T03:05:54.927Z,16.58
2022-08-26T03:08:22.311Z,16.50
2022-08-26T03:10:52.931Z,16.23
2022-08-26T03:13:19.871Z,15.40
2022-08-26T03:15:47.647Z,15.23
2022-08-26T03:18:17.432Z,16.30
2022-08-26T03:20:44.783Z,14.82
2022-08-26T03:23:11.888Z,14.85
2022-08-26T03:25:39.888Z,14.93
2022-08-26T03:28:06.724Z,14.50
2022-08-26T03:30:45.237Z,15.48
2022-08-26T03:33:13.792Z,14.40
2022-08-26T03:38:10.394Z,13.38
2022-08-26T03:40:37.936Z,16.15
2022-08-26T03:43:07.107Z,16.40
2022-08-26T03:45:37.722Z,15.23
2022-08-26T03:48:05.129Z,15.50
2022-08-26T03:50:34.119Z,14.57
2022-08-26T03:53:01.880Z,13.35
2022-08-26T03:58:03.012Z,14.80
2022-08-26T04:00:30.339Z,15.00
2022-08-26T04:02:57.614Z,17.35
2022-08-26T04:05:25.286Z,17.48
2022-08-26T04:07:52.407Z,15.63
2022-08-26T04:10:26.436Z,14.55
2022-08-26T04:12:58.834Z,14.75
2022-08-26T04:15:27.229Z,12.95
2022-08-26T04:20:22.929Z,10.40
2022-08-26T04:22:50.720Z,12.60
2022-08-26T04:25:18.602Z,12.98
2022-08-26T04:27:48.321Z,12.93
2022-08-26T04:30:18.118Z,11.82
2022-08-26T04:32:49.063Z,15.33
2022-08-26T04:35:20.939Z,14.88
2022-08-26T04:37:55.390Z,14.32
2022-08-26T04:40:23.309Z,14.57
2022-08-26T04:45:18.459Z,15.52
2022-08-26T04:47:53.770Z,15.05
2022-08-26T04:50:21.290Z,15.75
2022-08-26T04:52:50.510Z,12.88
2022-08-26T04:55:17.430Z,14.57
2022-08-26T04:57:47.285Z,11.05
2022-08-26T05:00:15.183Z,10.68
2022-08-26T05:02:42.095Z,16.98
2022-08-26T05:05:13.635Z,13.55
2022-08-26T05:07:40.872Z,13.38
2022-08-26T05:10:09.517Z,14.03
2022-08-26T05:12:37.884Z,14.75
2022-08-26T05:15:05.525Z,18.05
2022-08-26T05:17:33.387Z,16.55
2022-08-26T05:20:05.825Z,16.33
2022-08-26T05:22:34.142Z,16.00
2022-08-26T05:25:01.425Z,15.20
2022-08-26T05:27:28.371Z,15.80
2022-08-26T05:29:58.521Z,14.90
2022-08-26T05:32:25.452Z,14.93
2022-08-26T05:34:55.793Z,15.82
2022-08-26T05:37:23.263Z,17.65
2022-08-26T05:39:51.209Z,17.83
2022-08-26T05:42:19.842Z,17.73
2022-08-26T05:44:55.370Z,16.52
2022-08-26T05:47:26.225Z,17.13
2022-08-26T05:49:53.425Z,17.35
2022-08-26T05:52:20.525Z,16.80
2022-08-26T05:54:47.840Z,18.45
2022-08-26T05:57:14.917Z,17.65
2022-08-26T05:59:41.843Z,15.68
2022-08-26T06:02:08.859Z,14.00
2022-08-26T06:04:41.435Z,13.65
2022-08-26T06:07:09.935Z,13.55
2022-08-26T06:09:39.744Z,12.07
2022-08-26T06:12:06.731Z,12.52
2022-08-26T06:14:33.536Z,12.75
2022-08-26T06:17:00.840Z,13.00
2022-08-26T06:19:32.922Z,12.65
2022-08-26T06:22:23.515Z,12.23
2022-08-26T06:25:11.270Z,11.07
2022-08-26T06:30:06.010Z,10.83
2022-08-26T06:32:35.947Z,10.20
2022-08-26T06:35:02.793Z,10.70
2022-08-26T06:37:32.091Z,10.60
2022-08-26T06:40:01.836Z,10.80
2022-08-26T06:42:33.589Z,10.52
2022-08-26T06:45:01.465Z,9.55
2022-08-26T06:47:30.563Z,10.25
2022-08-26T06:49:58.037Z,9.98
2022-08-26T06:52:27.937Z,9.82
2022-08-26T06:54:56.074Z,10.10
2022-08-26T06:57:22.921Z,9.90
2022-08-26T06:59:51.109Z,9.73
2022-08-26T07:02:18.409Z,9.20
2022-08-26T07:04:45.329Z,9.65
2022-08-26T07:07:15.726Z,9.65
2022-08-26T07:09:42.638Z,8.95
2022-08-26T07:12:09.784Z,9.23
2022-08-26T07:14:40.427Z,9.25
2022-08-26T07:17:13.927Z,8.88
2022-08-26T07:19:42.182Z,9.27
2022-08-26T07:22:09.484Z,9.20
2022-08-26T07:24:41.139Z,9.15
2022-08-26T07:27:13.650Z,8.90
2022-08-26T07:29:44.809Z,8.93
2022-08-26T07:34:40.718Z,8.77
2022-08-26T07:37:09.055Z,8.43
2022-08-26T07:39:36.337Z,9.60
2022-08-26T07:42:07.855Z,8.02
2022-08-26T07:44:39.350Z,9.32
2022-08-26T07:47:24.254Z,8.82
2022-08-26T07:49:55.635Z,8.20
2022-08-26T07:52:26.678Z,8.75
2022-08-26T07:55:01.679Z,7.75
2022-08-26T07:57:31.225Z,7.90
2022-08-26T07:59:58.897Z,8.38
2022-08-26T08:02:28.455Z,7.35
2022-08-26T08:04:56.939Z,7.80
2022-08-26T08:07:38.784Z,7.85
2022-08-26T08:10:21.093Z,7.18
2022-08-26T08:12:54.282Z,9.20
2022-08-26T08:15:26.055Z,8.30
2022-08-26T08:17:54.785Z,8.05
2022-08-26T08:20:26.387Z,8.10
2022-08-26T08:22:54.285Z,7.97
2022-08-26T08:27:52.742Z,6.60
2022-08-26T08:30:22.818Z,7.53
2022-08-26T08:32:51.385Z,7.10
2022-08-26T08:35:25.236Z,6.80
2022-08-26T08:37:54.950Z,7.40
2022-08-26T08:40:27.510Z,6.47
2022-08-26T08:43:37.318Z,6.50
2022-08-26T08:46:13.594Z,6.63
2022-08-26T08:48:48.386Z,6.43
2022-08-26T08:51:40.046Z,6.53
2022-08-26T08:54:08.982Z,6.55
2022-08-26T08:56:44.962Z,7.15
2022-08-26T08:59:19.738Z,5.80
2022-08-26T09:01:58.732Z,6.10
2022-08-26T09:04:47.775Z,5.35
2022-08-26T09:07:33.249Z,5.85
2022-08-26T09:10:25.394Z,5.90
2022-08-26T09:12:53.814Z,5.65
2022-08-26T09:15:43.580Z,5.90
2022-08-26T09:18:39.837Z,5.85
2022-08-26T09:21:14.032Z,5.38
2022-08-26T09:23:43.737Z,5.90
2022-08-26T09:26:30.922Z,5.15
2022-08-26T09:29:02.783Z,6.43
2022-08-26T09:31:36.100Z,5.85
2022-08-26T09:34:17.356Z,5.35
2022-08-26T09:36:54.249Z,5.55
2022-08-26T09:39:25.328Z,5.93
2022-08-26T09:42:09.708Z,5.93
2022-08-26T09:44:57.368Z,5.35
2022-08-26T09:50:12.571Z,6.05
2022-08-26T09:52:40.397Z,6.13
2022-08-26T09:55:09.980Z,6.05
2022-08-26T09:57:51.236Z,7.60
2022-08-26T10:00:39.568Z,7.20
2022-08-26T10:03:11.571Z,6.00
2022-08-26T10:05:49.664Z,6.03
2022-08-26T10:08:23.560Z,6.40
2022-08-26T10:10:56.361Z,6.13
2022-08-26T10:13:36.527Z,6.40
2022-08-26T10:16:28.370Z,5.95
2022-08-26T10:19:08.808Z,5.32
2022-08-26T10:21:40.843Z,6.10
2022-08-26T10:24:12.551Z,5.93
2022-08-26T10:27:10.683Z,5.25
2022-08-26T10:29:48.660Z,5.72
2022-08-26T10:32:31.441Z,5.65
2022-08-26T10:34:59.142Z,6.38
2022-08-26T10:40:27.522Z,5.43
2022-08-26T10:43:25.695Z,6.00
2022-08-26T10:46:07.335Z,5.72
2022-08-26T10:48:49.668Z,5.43
2022-08-26T10:51:25.057Z,5.65
2022-08-26T10:54:02.005Z,5.93
2022-08-26T10:56:52.434Z,5.70
2022-08-26T10:59:49.570Z,5.38
2022-08-26T11:02:34.825Z,5.60
2022-08-26T11:05:12.551Z,5.60
2022-08-26T11:07:57.198Z,5.65
2022-08-26T11:10:24.284Z,6.15
2022-08-26T11:13:07.655Z,4.05
2022-08-26T11:15:38.604Z,3.65
2022-08-26T11:18:10.023Z,3.78
2022-08-26T11:20:47.108Z,3.83
2022-08-26T11:23:31.503Z,5.07
2022-08-26T11:26:02.026Z,5.30
2022-08-26T11:28:39.292Z,5.07
2022-08-26T11:31:32.308Z,4.75
2022-08-26T11:34:07.185Z,4.82
2022-08-26T11:36:59.164Z,4.18
2022-08-26T11:39:29.459Z,4.25
2022-08-26T11:42:22.465Z,4.25
2022-08-26T11:44:51.881Z,4.88
2022-08-26T11:47:28.883Z,5.00
2022-08-26T11:50:23.585Z,5.32
2022-08-26T11:52:54.072Z,5.40
2022-08-26T11:55:23.441Z,5.03
2022-08-26T11:57:55.438Z,6.40
2022-08-26T12:00:26.969Z,5.50
2022-08-26T12:02:55.841Z,5.47
2022-08-26T12:05:36.274Z,5.63
2022-08-26T12:08:11.888Z,5.70
2022-08-26T12:10:40.137Z,5.50
2022-08-26T12:13:08.281Z,5.30
2022-08-26T12:15:38.377Z,5.00
2022-08-26T12:18:31.812Z,5.30
2022-08-26T12:21:16.548Z,6.47
2022-08-26T12:23:46.888Z,10.43
2022-08-26T12:26:28.088Z,8.93
2022-08-26T12:29:20.082Z,9.00
2022-08-26T12:32:13.640Z,7.78
2022-08-26T12:34:43.459Z,8.23
2022-08-26T12:37:15.759Z,8.25
2022-08-26T12:39:46.518Z,8.07
2022-08-26T12:42:15.747Z,8.75
2022-08-26T12:45:06.808Z,9.55
2022-08-26T12:47:43.136Z,9.63
2022-08-26T12:50:11.867Z,10.25
2022-08-26T12:53:08.453Z,11.18
2022-08-26T12:59:39.466Z,9.57
2022-08-26T13:02:43.051Z,10.52
2022-08-26T13:05:33.842Z,11.30
2022-08-26T13:08:26.712Z,12.75
2022-08-26T13:11:54.095Z,13.68
2022-08-26T13:18:57.194Z,13.68
2022-08-26T13:29:16.621Z,10.90
2022-08-26T13:31:45.750Z,10.80
2022-08-26T13:34:21.531Z,12.68
2022-08-26T13:37:06.843Z,13.52
2022-08-26T13:39:50.001Z,14.52
2022-08-26T13:43:05.966Z,14.75
2022-08-26T13:45:33.062Z,15.27
2022-08-26T13:48:03.098Z,17.08
2022-08-26T13:50:30.025Z,13.70
2022-08-26T13:52:57.066Z,11.13
2022-08-26T13:55:23.908Z,12.80
2022-08-26T13:57:50.886Z,11.60
2022-08-26T14:00:20.057Z,12.73
2022-08-26T14:02:47.685Z,14.10
2022-08-26T14:05:15.447Z,14.27
2022-08-26T14:07:42.368Z,14.02
2022-08-26T14:10:09.729Z,15.00
2022-08-26T14:12:37.050Z,17.08
2022-08-26T14:15:04.303Z,17.63
2022-08-26T14:17:32.584Z,20.37
2022-08-26T14:20:02.144Z,20.00
2022-08-26T14:22:29.154Z,20.38
2022-08-26T14:24:56.519Z,17.20
2022-08-26T14:27:23.460Z,16.52
2022-08-26T14:29:50.682Z,15.82
2022-08-26T14:32:26.196Z,15.07
2022-08-26T14:34:54.248Z,14.48
2022-08-26T14:39:50.433Z,14.43
2022-08-26T14:42:31.565Z,14.93
2022-08-26T14:45:02.069Z,15.77
2022-08-26T14:47:31.715Z,16.52
2022-08-26T14:49:58.886Z,16.80
2022-08-26T14:52:26.320Z,17.53
2022-08-26T14:54:55.090Z,16.38
2022-08-26T14:57:22.543Z,15.52
2022-08-26T14:59:50.542Z,15.10
2022-08-26T15:05:02.188Z,14.20
2022-08-26T15:07:29.219Z,13.15
2022-08-26T15:09:59.247Z,14.48
2022-08-26T15:12:26.412Z,14.07
2022-08-26T15:14:53.945Z,13.70
2022-08-26T15:17:20.821Z,13.15
2022-08-26T15:19:47.709Z,13.13
2022-08-26T15:22:14.635Z,12.20
2022-08-26T15:24:41.531Z,10.82
2022-08-26T15:27:09.062Z,9.75
2022-08-26T15:29:36.310Z,9.65
2022-08-26T15:32:03.717Z,8.70
2022-08-26T15:34:31.927Z,9.30
2022-08-26T15:37:01.162Z,9.10
2022-08-26T15:39:28.498Z,8.35
2022-08-26T15:41:59.719Z,7.93
2022-08-26T15:44:27.560Z,6.60
2022-08-26T15:46:58.471Z,6.20
2022-08-26T15:49:26.917Z,6.38
2022-08-26T15:54:23.337Z,5.68
2022-08-26T15:56:52.221Z,5.40
2022-08-26T15:59:20.683Z,5.10
2022-08-26T16:01:48.383Z,5.00
2022-08-26T16:04:15.400Z,5.05
2022-08-26T16:06:43.499Z,5.25
2022-08-26T16:09:10.763Z,5.43
2022-08-26T16:11:37.874Z,5.57
2022-08-26T16:14:05.573Z,5.35
2022-08-26T16:16:32.657Z,6.22
2022-08-26T16:19:03.250Z,5.53
2022-08-26T16:21:34.042Z,6.13
2022-08-26T16:24:00.962Z,7.07
2022-08-26T16:26:32.832Z,6.80
2022-08-26T16:29:02.662Z,6.63
2022-08-26T16:31:29.962Z,7.13
2022-08-26T16:33:56.943Z,6.78
2022-08-26T16:36:24.207Z,6.53
2022-08-26T16:38:58.416Z,6.28
2022-08-26T16:41:28.375Z,7.07
2022-08-26T16:43:55.773Z,7.47
2022-08-26T16:46:25.667Z,7.75
2022-08-26T16:48:54.555Z,9.07
2022-08-26T16:51:23.766Z,8.93
2022-08-26T16:53:51.907Z,8.23
2022-08-26T16:56:21.296Z,8.82
2022-08-26T16:58:48.742Z,8.95
2022-08-26T17:01:16.429Z,8.43
2022-08-26T17:03:43.978Z,9.77
2022-08-26T17:06:11.103Z,10.50
2022-08-26T17:08:44.197Z,10.23
2022-08-26T17:11:14.593Z,11.15
2022-08-26T17:13:41.571Z,11.38
2022-08-26T17:16:10.664Z,10.98
2022-08-26T17:18:38.029Z,11.40
2022-08-26T17:21:08.828Z,11.75
2022-08-26T17:23:37.263Z,12.63
2022-08-26T17:26:04.987Z,11.60
2022-08-26T17:28:32.266Z,11.73
2022-08-26T17:30:59.966Z,13.77
2022-08-26T17:33:27.856Z,13.63
2022-08-26T17:38:22.188Z,12.90
2022-08-26T17:40:49.734Z,12.30
2022-08-26T17:43:19.989Z,13.98
2022-08-26T17:45:50.691Z,13.50
2022-08-26T17:48:17.721Z,13.95
2022-08-26T17:50:49.429Z,13.23
2022-08-26T17:53:22.220Z,12.52
2022-08-26T17:55:49.549Z,13.35
2022-08-26T17:58:18.393Z,14.15
2022-08-26T18:00:49.968Z,15.00
2022-08-26T18:03:17.645Z,16.60
2022-08-26T18:05:48.885Z,17.95
2022-08-26T18:08:15.764Z,18.17
2022-08-26T18:10:45.686Z,18.85
2022-08-26T18:13:14.784Z,16.33
2022-08-26T18:15:43.530Z,18.00
2022-08-26T18:18:10.499Z,17.92
2022-08-26T18:20:40.255Z,18.20
2022-08-26T18:23:07.602Z,18.38
2022-08-26T18:25:38.123Z,19.25
2022-08-26T18:28:05.270Z,19.15
2022-08-26T18:30:32.106Z,19.45
2022-08-26T18:33:00.661Z,28.60
2022-08-26T18:35:29.833Z,18.55
2022-08-26T18:38:10.894Z,18.05
2022-08-26T18:40:40.371Z,18.40
2022-08-26T18:43:07.884Z,17.50
2022-08-26T18:45:35.246Z,17.83
2022-08-26T18:48:04.009Z,17.60
2022-08-26T18:50:33.351Z,18.33
2022-08-26T18:53:03.114Z,17.95
2022-08-26T18:55:30.009Z,19.85
2022-08-26T18:57:56.910Z,22.77
2022-08-26T19:00:23.860Z,19.27
2022-08-26T19:02:51.890Z,18.13
2022-08-26T19:05:21.633Z,16.92
2022-08-26T19:07:48.503Z,20.73
2022-08-26T19:10:15.556Z,21.05
2022-08-26T19:12:42.623Z,19.45
2022-08-26T19:15:11.328Z,18.65
2022-08-26T19:17:38.201Z,19.02
2022-08-26T19:20:05.656Z,18.45
2022-08-26T19:22:32.562Z,18.20
2022-08-26T19:24:59.478Z,17.10
2022-08-26T19:27:26.260Z,17.33
2022-08-26T19:29:53.144Z,19.50
2022-08-26T19:32:24.190Z,19.40
2022-08-26T19:34:54.562Z,20.33
2022-08-26T19:37:21.571Z,21.45
2022-08-26T19:39:48.582Z,22.85
2022-08-26T19:42:16.471Z,20.77
2022-08-26T19:45:02.105Z,19.23
2022-08-26T19:47:32.209Z,19.05
2022-08-26T19:49:59.004Z,21.83
2022-08-26T19:52:30.148Z,22.63
2022-08-26T19:55:00.008Z,25.10
2022-08-26T19:57:26.799Z,23.13
2022-08-26T19:59:54.227Z,24.08
2022-08-26T20:02:21.130Z,25.30
2022-08-26T20:04:48.100Z,25.58
2022-08-26T20:07:18.609Z,26.17
2022-08-26T20:09:52.521Z,26.17
2022-08-26T20:12:19.474Z,28.63
2022-08-26T20:14:46.315Z,28.27
2022-08-26T20:17:13.596Z,27.75
2022-08-26T20:19:59.320Z,27.80
2022-08-26T20:22:26.579Z,28.52
2022-08-26T20:24:56.344Z,28.43
2022-08-26T20:27:34.714Z,26.77
2022-08-26T20:30:07.480Z,26.73
2022-08-26T20:32:35.651Z,26.67
2022-08-26T20:35:03.171Z,26.85
2022-08-26T20:37:30.101Z,25.95
2022-08-26T20:39:57.003Z,25.42
2022-08-26T20:42:24.125Z,26.48
2022-08-26T20:44:54.177Z,24.77
2022-08-26T20:47:24.869Z,30.70
2022-08-26T20:49:52.349Z,27.40
2022-08-26T20:52:20.326Z,26.00
2022-08-26T20:54:47.323Z,25.50
2022-08-26T20:57:17.167Z,27.33
2022-08-26T20:59:44.301Z,26.95
2022-08-26T21:02:11.172Z,26.35
2022-08-26T21:04:38.104Z,25.58
2022-08-26T21:07:05.044Z,26.55
2022-08-26T21:09:32.873Z,28.58
2022-08-26T21:11:59.728Z,28.40
2022-08-26T21:14:26.657Z,27.13
2022-08-26T21:16:53.839Z,27.17
2022-08-26T21:19:20.934Z,27.17
2022-08-26T21:21:52.206Z,27.15
2022-08-26T21:24:19.190Z,28.70
2022-08-26T21:26:47.282Z,27.75
2022-08-26T21:29:14.982Z,27.65
2022-08-26T21:31:46.521Z,27.98
2022-08-26T21:34:18.703Z,26.70
2022-08-26T21:36:47.216Z,25.92
2022-08-26T21:39:14.824Z,26.70
2022-08-26T21:41:43.478Z,26.33
2022-08-26T21:44:12.205Z,24.20
2022-08-26T21:46:39.774Z,25.38
2022-08-26T21:49:10.564Z,26.38
2022-08-26T21:51:41.869Z,28.48
2022-08-26T21:54:11.396Z,29.58
2022-08-26T21:56:47.117Z,29.98
2022-08-26T21:59:17.515Z,29.83
2022-08-26T22:01:44.504Z,29.20
2022-08-26T22:04:11.407Z,29.70
2022-08-26T22:06:50.059Z,28.45
2022-08-26T22:09:20.148Z,29.65
2022-08-26T22:11:47.551Z,29.00
2022-08-26T22:14:19.224Z,30.42
2022-08-26T22:16:50.555Z,28.90
2022-08-26T22:19:23.495Z,30.48
2022-08-26T22:21:52.280Z,30.85
2022-08-26T22:24:20.717Z,31.85
2022-08-26T22:26:47.932Z,30.33
2022-08-26T22:29:16.070Z,28.80
2022-08-26T22:34:13.216Z,26.92
2022-08-26T22:36:44.709Z,26.98
2022-08-26T22:39:17.786Z,28.25
2022-08-26T22:41:48.588Z,28.77
2022-08-26T22:44:16.315Z,29.27
2022-08-26T22:46:47.069Z,28.48
2022-08-26T22:49:16.375Z,29.75
2022-08-26T22:51:44.530Z,29.95
2022-08-26T22:54:11.769Z,26.80
2022-08-26T22:56:39.382Z,28.33
2022-08-26T22:59:11.830Z,30.20
2022-08-26T23:01:41.433Z,31.33
2022-08-26T23:04:08.785Z,33.38
2022-08-26T23:06:37.953Z,34.85
2022-08-26T23:09:06.715Z,36.75
2022-08-26T23:11:34.992Z,39.55
2022-08-26T23:14:02.854Z,41.80
2022-08-26T23:16:44.283Z,41.45
2022-08-26T23:19:13.656Z,41.78
2022-08-26T23:21:40.763Z,40.58
2022-08-26T23:24:08.631Z,39.50
2022-08-26T23:29:03.910Z,38.90
2022-08-26T23:34:19.439Z,38.92
2022-08-26T23:36:49.020Z,39.40
2022-08-26T23:39:18.426Z,40.83
2022-08-26T23:41:45.488Z,39.67
2022-08-26T23:44:12.749Z,41.53
2022-08-26T23:46:39.783Z,41.70
2022-08-26T23:49:06.907Z,40.88
2022-08-26T23:51:52.536Z,40.23
2022-08-26T23:54:19.759Z,41.28
2022-08-26T23:56:48.718Z,41.20
2022-08-26T23:59:15.679Z,41.80
